createdAt,value
2019-04-28T00:01:18.213Z,3.47
2019-04-28T00:03:22.533Z,3.15
2019-04-28T00:05:26.649Z,3.58
2019-04-28T00:07:32.240Z,3.77
2019-04-28T00:09:36.398Z,3.25
2019-04-28T00:11:41.720Z,3.45
2019-04-28T00:13:45.939Z,3.60
2019-04-28T00:15:51.595Z,3.17
2019-04-28T00:17:55.943Z,3.92
2019-04-28T00:20:01.772Z,3.60
2019-04-28T00:22:07.303Z,3.00
2019-04-28T00:24:15.739Z,3.30
2019-04-28T00:26:21.216Z,2.92
2019-04-28T00:28:25.388Z,3.22
2019-04-28T00:30:29.600Z,2.90
2019-04-28T00:32:33.813Z,3.35
2019-04-28T00:34:38.022Z,3.30
2019-04-28T00:36:43.357Z,3.70
2019-04-28T00:38:47.472Z,3.50
2019-04-28T00:40:52.802Z,3.02
2019-04-28T00:42:57.125Z,2.87
2019-04-28T00:45:01.805Z,3.00
2019-04-28T00:47:06.158Z,3.00
2019-04-28T00:49:11.858Z,3.33
2019-04-28T00:51:15.935Z,3.25
2019-04-28T00:53:20.684Z,4.28
2019-04-28T00:55:25.307Z,3.70
2019-04-28T00:57:30.942Z,4.17
2019-04-28T00:59:34.961Z,4.15
2019-04-28T01:01:43.737Z,4.08
2019-04-28T01:03:47.849Z,3.33
2019-04-28T01:05:51.960Z,3.45
2019-04-28T01:07:56.187Z,3.60
2019-04-28T01:10:01.423Z,3.90
2019-04-28T01:12:06.123Z,3.50
2019-04-28T01:14:11.507Z,4.25
2019-04-28T01:16:23.363Z,4.37
2019-04-28T01:18:31.578Z,4.05
2019-04-28T01:20:35.779Z,4.28
2019-04-28T01:22:40.192Z,3.92
2019-04-28T01:24:44.111Z,4.53
2019-04-28T01:26:50.839Z,4.05
2019-04-28T01:28:54.721Z,4.55
2019-04-28T01:31:09.635Z,5.35
2019-04-28T01:33:17.773Z,4.10
2019-04-28T01:35:21.763Z,4.55
2019-04-28T01:37:25.962Z,5.65
2019-04-28T01:39:30.091Z,4.65
2019-04-28T01:41:34.203Z,5.78
2019-04-28T01:43:38.428Z,5.15
2019-04-28T01:45:42.623Z,4.70
2019-04-28T01:47:46.712Z,5.10
2019-04-28T01:49:50.837Z,5.55
2019-04-28T01:51:57.249Z,5.53
2019-04-28T01:54:01.417Z,4.80
2019-04-28T01:56:05.617Z,5.28
2019-04-28T01:58:09.621Z,5.17
2019-04-28T02:00:23.000Z,5.67
2019-04-28T02:02:22.049Z,5.95
2019-04-28T02:04:26.267Z,5.33
2019-04-28T02:06:30.368Z,5.78
2019-04-28T02:08:34.476Z,4.75
2019-04-28T02:10:40.166Z,5.33
2019-04-28T02:12:44.152Z,6.92
2019-04-28T02:14:50.003Z,6.28
2019-04-28T02:16:53.884Z,5.60
2019-04-28T02:18:59.719Z,6.40
2019-04-28T02:21:09.658Z,6.10
2019-04-28T02:23:21.173Z,6.20
2019-04-28T02:25:25.395Z,6.42
2019-04-28T02:27:30.204Z,6.22
2019-04-28T02:29:34.258Z,5.95
2019-04-28T02:31:38.104Z,5.58
2019-04-28T02:33:42.226Z,5.50
2019-04-28T02:35:46.551Z,6.03
2019-04-28T02:37:50.764Z,6.25
2019-04-28T02:39:54.989Z,5.10
2019-04-28T02:42:01.323Z,5.28
2019-04-28T02:44:05.050Z,6.30
2019-04-28T02:46:10.558Z,5.25
2019-04-28T02:48:16.426Z,5.17
2019-04-28T02:50:22.185Z,4.78
2019-04-28T02:52:30.637Z,5.58
2019-04-28T02:54:33.881Z,4.20
2019-04-28T02:56:40.906Z,4.40
2019-04-28T02:58:43.843Z,5.28
2019-04-28T03:01:02.527Z,4.85
2019-04-28T03:02:53.812Z,4.40
2019-04-28T03:05:00.372Z,4.30
2019-04-28T03:07:03.567Z,4.53
2019-04-28T03:09:10.425Z,4.90
2019-04-28T03:11:14.034Z,4.53
2019-04-28T03:13:20.674Z,5.08
2019-04-28T03:15:23.565Z,5.12
2019-04-28T03:17:30.239Z,5.00
2019-04-28T03:19:34.196Z,6.00
2019-04-28T03:21:41.398Z,7.78
2019-04-28T03:23:43.963Z,6.72
2019-04-28T03:25:52.389Z,6.42
2019-04-28T03:28:04.444Z,5.45
2019-04-28T03:30:26.260Z,6.97
2019-04-28T03:32:52.208Z,7.08
2019-04-28T03:34:53.051Z,6.85
2019-04-28T03:36:53.797Z,6.87
2019-04-28T03:39:00.548Z,6.80
2019-04-28T03:41:03.804Z,6.47
2019-04-28T03:43:10.474Z,8.03
2019-04-28T03:45:15.619Z,7.55
2019-04-28T03:47:21.313Z,7.00
2019-04-28T03:49:33.036Z,7.15
2019-04-28T03:51:37.164Z,6.80
2019-04-28T03:53:41.241Z,7.25
2019-04-28T03:55:45.477Z,7.92
2019-04-28T03:57:51.023Z,8.05
2019-04-28T03:59:55.440Z,10.00
2019-04-28T04:02:03.157Z,9.60
2019-04-28T04:04:05.299Z,9.38
2019-04-28T04:06:10.544Z,8.08
2019-04-28T04:08:14.515Z,8.63
2019-04-28T04:10:31.253Z,9.60
2019-04-28T04:12:41.178Z,9.53
2019-04-28T04:14:50.744Z,9.95
2019-04-28T04:16:56.343Z,10.25
2019-04-28T04:19:02.163Z,9.13
2019-04-28T04:21:05.971Z,9.03
2019-04-28T04:23:11.304Z,8.75
2019-04-28T04:25:15.690Z,8.73
2019-04-28T04:27:20.898Z,8.48
2019-04-28T04:29:25.254Z,9.60
2019-04-28T04:31:31.773Z,8.08
2019-04-28T04:33:35.292Z,9.18
2019-04-28T04:35:43.138Z,8.45
2019-04-28T04:37:44.964Z,8.78
2019-04-28T04:39:51.326Z,8.45
2019-04-28T04:41:55.008Z,8.75
2019-04-28T04:44:01.188Z,8.25
2019-04-28T04:46:22.102Z,8.45
2019-04-28T04:48:24.667Z,8.63
2019-04-28T04:50:31.050Z,8.65
2019-04-28T04:52:34.023Z,9.55
2019-04-28T04:54:40.115Z,8.80
2019-04-28T04:56:43.767Z,9.13
2019-04-28T04:58:50.273Z,9.20
2019-04-28T05:00:57.635Z,8.23
2019-04-28T05:03:06.125Z,9.03
2019-04-28T05:05:11.972Z,9.25
2019-04-28T05:07:16.086Z,9.85
2019-04-28T05:09:20.194Z,9.68
2019-04-28T05:11:24.408Z,10.15
2019-04-28T05:13:29.917Z,10.13
2019-04-28T05:15:34.968Z,8.90
2019-04-28T05:17:40.222Z,9.05
2019-04-28T05:19:44.122Z,8.93
2019-04-28T05:21:49.768Z,9.43
2019-04-28T05:23:55.512Z,9.33
2019-04-28T05:26:01.569Z,9.80
2019-04-28T05:28:05.898Z,9.83
2019-04-28T05:30:10.733Z,9.63
2019-04-28T05:32:15.854Z,9.63
2019-04-28T05:34:20.542Z,10.18
2019-04-28T05:36:24.394Z,9.18
2019-04-28T05:38:30.295Z,9.35
2019-04-28T05:40:34.648Z,8.75
2019-04-28T05:42:40.386Z,8.80
2019-04-28T05:44:44.500Z,8.78
2019-04-28T05:46:50.358Z,8.50
2019-04-28T05:49:01.630Z,8.23
2019-04-28T05:51:09.832Z,10.05
2019-04-28T05:53:15.680Z,8.80
2019-04-28T05:55:30.557Z,9.20
2019-04-28T05:57:41.859Z,9.13
2019-04-28T06:00:00.034Z,9.18
2019-04-28T06:02:04.101Z,8.65
2019-04-28T06:04:09.609Z,8.50
2019-04-28T06:06:14.146Z,10.03
2019-04-28T06:08:22.653Z,9.70
2019-04-28T06:10:26.772Z,10.25
2019-04-28T06:12:32.034Z,9.20
2019-04-28T06:14:36.212Z,9.55
2019-04-28T06:16:40.739Z,9.30
2019-04-28T06:18:44.762Z,10.18
2019-04-28T06:20:49.792Z,9.45
2019-04-28T06:22:53.996Z,9.85
2019-04-28T06:24:58.223Z,9.78
2019-04-28T06:27:02.411Z,9.55
2019-04-28T06:29:06.629Z,10.60
2019-04-28T06:31:10.544Z,10.40
2019-04-28T06:33:14.762Z,9.98
2019-04-28T06:35:18.606Z,10.03
2019-04-28T06:37:22.455Z,10.08
2019-04-28T06:39:26.572Z,10.28
2019-04-28T06:41:30.781Z,8.95
2019-04-28T06:43:34.990Z,8.25
2019-04-28T06:45:39.092Z,8.75
2019-04-28T06:47:43.310Z,7.47
2019-04-28T06:49:47.456Z,8.03
2019-04-28T06:51:51.527Z,8.28
2019-04-28T06:53:56.255Z,8.20
2019-04-28T06:56:00.100Z,7.95
2019-04-28T06:58:04.284Z,7.92
2019-04-28T07:00:09.120Z,8.15
2019-04-28T07:02:12.972Z,9.05
2019-04-28T07:04:17.114Z,8.03
2019-04-28T07:06:21.030Z,7.75
2019-04-28T07:08:25.232Z,8.63
2019-04-28T07:10:29.439Z,8.63
2019-04-28T07:12:33.650Z,9.10
2019-04-28T07:14:37.768Z,8.88
2019-04-28T07:16:41.592Z,8.68
2019-04-28T07:18:45.799Z,9.15
2019-04-28T07:20:51.268Z,9.55
2019-04-28T07:22:55.432Z,11.18
2019-04-28T07:24:59.257Z,9.68
2019-04-28T07:27:03.683Z,9.18
2019-04-28T07:29:07.873Z,9.40
2019-04-28T07:31:11.885Z,9.60
2019-04-28T07:33:16.082Z,9.20
2019-04-28T07:35:20.142Z,9.00
2019-04-28T07:37:24.307Z,9.30
2019-04-28T07:39:28.532Z,9.63
2019-04-28T07:41:32.647Z,8.88
2019-04-28T07:43:36.490Z,8.53
2019-04-28T07:45:40.847Z,9.08
2019-04-28T07:47:45.068Z,9.08
2019-04-28T07:49:49.184Z,9.38
2019-04-28T07:51:57.583Z,9.20
2019-04-28T07:54:04.924Z,8.60
2019-04-28T07:56:09.281Z,8.88
2019-04-28T07:58:13.530Z,8.28
2019-04-28T08:00:19.137Z,7.97
2019-04-28T08:02:22.965Z,9.23
2019-04-28T08:04:26.808Z,8.50
2019-04-28T08:06:30.970Z,8.20
2019-04-28T08:08:35.071Z,9.08
2019-04-28T08:10:39.296Z,8.23
2019-04-28T08:12:43.415Z,9.55
2019-04-28T08:14:47.274Z,8.98
2019-04-28T08:16:51.632Z,8.55
2019-04-28T08:18:55.458Z,9.43
2019-04-28T08:20:59.662Z,9.93
2019-04-28T08:23:03.865Z,9.93
2019-04-28T08:25:10.106Z,8.38
2019-04-28T08:27:14.333Z,8.70
2019-04-28T08:29:18.437Z,8.13
2019-04-28T08:31:24.289Z,7.60
2019-04-28T08:33:45.366Z,7.60
2019-04-28T08:35:49.187Z,7.23
2019-04-28T08:37:53.107Z,6.10
2019-04-28T08:39:56.642Z,5.77
2019-04-28T08:42:00.179Z,6.03
2019-04-28T08:44:03.889Z,6.30
2019-04-28T08:46:07.705Z,6.23
2019-04-28T08:48:11.266Z,5.87
2019-04-28T08:50:15.510Z,5.57
2019-04-28T08:52:19.414Z,5.77
2019-04-28T08:54:23.329Z,6.10
2019-04-28T08:56:27.240Z,5.87
2019-04-28T08:58:31.243Z,5.50
2019-04-28T09:00:35.141Z,4.60
2019-04-28T09:02:39.048Z,4.50
2019-04-28T09:04:42.957Z,4.60
2019-04-28T09:06:46.756Z,4.37
2019-04-28T09:08:50.567Z,4.60
2019-04-28T09:10:54.461Z,4.87
2019-04-28T09:12:58.269Z,4.33
2019-04-28T09:15:01.814Z,5.27
2019-04-28T09:17:05.671Z,6.00
2019-04-28T09:19:09.572Z,4.30
2019-04-28T09:21:13.473Z,3.33
2019-04-28T09:23:17.001Z,3.70
2019-04-28T09:25:20.877Z,3.43
2019-04-28T09:27:24.778Z,4.00
2019-04-28T09:29:28.692Z,3.67
2019-04-28T09:31:32.610Z,3.00
2019-04-28T09:33:36.505Z,3.23
2019-04-28T09:35:40.400Z,3.23
2019-04-28T09:37:44.319Z,3.23
2019-04-28T09:39:49.488Z,3.10
2019-04-28T09:41:54.987Z,3.27
2019-04-28T09:44:18.860Z,3.07
2019-04-28T09:46:26.867Z,3.60
2019-04-28T09:48:30.763Z,3.83
2019-04-28T09:50:34.669Z,3.80
2019-04-28T09:52:38.480Z,3.47
2019-04-28T09:54:42.428Z,3.60
2019-04-28T09:56:56.005Z,4.00
2019-04-28T09:58:51.977Z,3.73
2019-04-28T10:00:55.842Z,4.00
2019-04-28T10:02:59.741Z,4.10
2019-04-28T10:05:04.774Z,4.53
2019-04-28T10:07:08.316Z,3.67
2019-04-28T10:09:12.801Z,4.03
2019-04-28T10:11:29.724Z,3.30
2019-04-28T10:13:24.611Z,3.67
2019-04-28T10:15:28.504Z,3.93
2019-04-28T10:17:32.397Z,3.53
2019-04-28T10:19:36.207Z,3.93
2019-04-28T10:21:40.125Z,3.33
2019-04-28T10:23:44.007Z,4.20
2019-04-28T10:25:47.921Z,3.90
2019-04-28T10:27:51.833Z,3.07
2019-04-28T10:29:55.350Z,2.60
2019-04-28T10:31:59.231Z,3.10
2019-04-28T10:34:04.549Z,3.20
2019-04-28T10:36:08.487Z,2.90
2019-04-28T10:38:12.061Z,2.37
2019-04-28T10:40:22.681Z,3.13
2019-04-28T10:42:26.575Z,2.70
2019-04-28T10:44:31.985Z,2.83
2019-04-28T10:46:35.791Z,3.27
2019-04-28T10:48:39.685Z,2.80
2019-04-28T10:50:43.595Z,2.50
2019-04-28T10:52:47.407Z,3.00
2019-04-28T10:54:51.302Z,2.77
2019-04-28T10:56:55.218Z,2.00
2019-04-28T10:58:59.321Z,2.70
2019-04-28T11:01:03.062Z,3.40
2019-04-28T11:03:07.127Z,3.07
2019-04-28T11:05:15.635Z,2.40
2019-04-28T11:07:19.865Z,2.57
2019-04-28T11:09:30.765Z,2.23
2019-04-28T11:11:33.698Z,2.30
2019-04-28T11:13:37.617Z,2.70
2019-04-28T11:15:41.526Z,2.33
2019-04-28T11:17:45.422Z,2.60
2019-04-28T11:19:49.232Z,3.17
2019-04-28T11:21:53.141Z,2.70
2019-04-28T11:23:56.740Z,3.40
2019-04-28T11:26:00.277Z,3.40
2019-04-28T11:28:04.228Z,3.50
2019-04-28T11:30:08.295Z,3.37
2019-04-28T11:32:12.017Z,3.97
2019-04-28T11:34:17.583Z,4.53
2019-04-28T11:36:22.725Z,4.23
2019-04-28T11:38:26.527Z,3.30
2019-04-28T11:40:30.395Z,3.67
2019-04-28T11:42:34.446Z,3.37
2019-04-28T11:44:38.441Z,3.70
2019-04-28T11:46:42.349Z,4.10
2019-04-28T11:48:45.881Z,3.63
2019-04-28T11:50:49.764Z,3.37
2019-04-28T11:52:53.661Z,2.63
2019-04-28T11:54:57.683Z,2.13
2019-04-28T11:57:01.578Z,2.90
2019-04-28T11:59:05.681Z,2.50
2019-04-28T12:01:10.274Z,2.70
2019-04-28T12:03:14.099Z,2.60
2019-04-28T12:05:17.991Z,2.30
2019-04-28T12:07:21.513Z,2.27
2019-04-28T12:09:35.687Z,2.53
2019-04-28T12:11:41.196Z,2.47
2019-04-28T12:13:51.876Z,2.10
2019-04-28T12:16:13.235Z,2.30
2019-04-28T12:18:21.103Z,1.83
2019-04-28T12:20:26.303Z,1.67
2019-04-28T12:22:29.813Z,1.80
2019-04-28T12:24:33.707Z,2.27
2019-04-28T12:26:37.524Z,1.43
2019-04-28T12:28:41.527Z,2.00
2019-04-28T12:30:45.067Z,1.60
2019-04-28T12:32:48.917Z,2.00
2019-04-28T12:34:52.831Z,1.80
2019-04-28T12:36:56.743Z,2.00
2019-04-28T12:39:00.639Z,2.07
2019-04-28T12:41:04.761Z,2.30
2019-04-28T12:43:08.287Z,1.60
2019-04-28T12:45:11.828Z,1.80
2019-04-28T12:47:15.748Z,1.40
2019-04-28T12:49:21.298Z,1.50
2019-04-28T12:51:25.314Z,1.13
2019-04-28T12:53:29.105Z,1.30
2019-04-28T12:55:33.016Z,1.10
2019-04-28T12:57:36.914Z,1.03
2019-04-28T12:59:45.123Z,0.97
2019-04-28T13:01:59.575Z,0.90
2019-04-28T13:04:20.979Z,0.90
2019-04-28T13:06:24.814Z,0.70
2019-04-28T13:08:28.333Z,0.80
2019-04-28T13:10:32.198Z,1.20
2019-04-28T13:12:36.094Z,1.07
2019-04-28T13:14:39.896Z,0.80
2019-04-28T13:16:43.834Z,0.90
2019-04-28T13:18:47.718Z,0.90
2019-04-28T13:20:51.322Z,0.50
2019-04-28T13:22:55.236Z,0.70
2019-04-28T13:24:58.827Z,1.03
2019-04-28T13:27:02.620Z,1.00
2019-04-28T13:29:06.522Z,1.37
2019-04-28T13:31:10.122Z,0.90
2019-04-28T13:33:13.923Z,0.90
2019-04-28T13:35:17.933Z,0.83
2019-04-28T13:37:21.848Z,0.73
2019-04-28T13:39:33.232Z,0.50
2019-04-28T13:41:37.587Z,0.53
2019-04-28T13:43:41.133Z,0.63
2019-04-28T13:45:45.026Z,0.90
2019-04-28T13:47:48.548Z,1.10
2019-04-28T13:49:54.285Z,1.10
2019-04-28T13:51:58.085Z,1.60
2019-04-28T13:54:03.556Z,2.00
2019-04-28T13:56:07.434Z,2.30
2019-04-28T13:58:11.053Z,2.20
2019-04-28T14:00:22.432Z,2.40
2019-04-28T14:02:33.937Z,2.20
2019-04-28T14:04:39.071Z,2.50
2019-04-28T14:06:44.275Z,2.13
2019-04-28T14:08:48.072Z,2.00
2019-04-28T14:10:51.996Z,1.70
2019-04-28T14:12:55.773Z,2.10
2019-04-28T14:14:59.605Z,2.13
2019-04-28T14:17:03.343Z,2.53
2019-04-28T14:19:06.846Z,1.90
2019-04-28T14:21:10.740Z,2.20
2019-04-28T14:23:14.307Z,2.17
2019-04-28T14:25:18.413Z,2.33
2019-04-28T14:27:22.295Z,2.60
2019-04-28T14:29:26.113Z,2.00
2019-04-28T14:31:29.729Z,2.00
2019-04-28T14:33:33.321Z,2.10
2019-04-28T14:35:36.838Z,1.93
2019-04-28T14:37:40.436Z,1.77
2019-04-28T14:39:44.264Z,1.20
2019-04-28T14:41:48.202Z,1.97
2019-04-28T14:43:52.122Z,1.33
2019-04-28T14:45:56.007Z,1.10
2019-04-28T14:47:59.914Z,1.50
2019-04-28T14:50:04.746Z,1.30
2019-04-28T14:52:08.656Z,1.10
2019-04-28T14:54:12.195Z,1.80
2019-04-28T14:56:16.116Z,0.90
2019-04-28T14:58:19.604Z,0.97
2019-04-28T15:00:37.197Z,0.90
2019-04-28T15:02:45.451Z,1.03
2019-04-28T15:04:59.645Z,1.27
2019-04-28T15:07:07.540Z,0.87
2019-04-28T15:09:13.056Z,1.00
2019-04-28T15:11:27.908Z,0.93
2019-04-28T15:13:31.743Z,0.97
2019-04-28T15:15:35.550Z,0.80
2019-04-28T15:17:39.529Z,0.93
2019-04-28T15:19:43.353Z,0.90
2019-04-28T15:21:47.160Z,1.30
2019-04-28T15:23:51.064Z,0.83
2019-04-28T15:25:54.958Z,1.57
2019-04-28T15:27:58.768Z,1.30
2019-04-28T15:30:02.566Z,14.47
2019-04-28T15:32:06.465Z,4.97
2019-04-28T15:34:10.273Z,3.53
2019-04-28T15:36:14.602Z,1.80
2019-04-28T15:38:18.498Z,1.03
2019-04-28T15:40:22.030Z,1.00
2019-04-28T15:42:26.004Z,3.07
2019-04-28T15:44:29.900Z,3.20
2019-04-28T15:46:33.808Z,1.10
2019-04-28T15:48:37.366Z,0.87
2019-04-28T15:50:41.199Z,0.90
2019-04-28T15:52:45.009Z,10.13
2019-04-28T15:54:48.552Z,1.50
2019-04-28T15:56:52.414Z,7.90
2019-04-28T15:58:56.786Z,2.57
2019-04-28T16:01:00.940Z,0.80
2019-04-28T16:03:04.850Z,0.80
2019-04-28T16:05:08.823Z,0.83
2019-04-28T16:07:24.255Z,0.90
2019-04-28T16:09:17.890Z,3.30
2019-04-28T16:11:21.703Z,1.00
2019-04-28T16:13:25.611Z,1.20
2019-04-28T16:15:29.503Z,1.00
2019-04-28T16:17:33.426Z,1.10
2019-04-28T16:19:37.316Z,2.20
2019-04-28T16:21:41.228Z,1.07
2019-04-28T16:23:45.142Z,1.00
2019-04-28T16:25:48.679Z,0.90
2019-04-28T16:27:52.554Z,23.40
2019-04-28T16:29:56.092Z,3.47
2019-04-28T16:31:59.630Z,5.33
2019-04-28T16:34:03.531Z,3.27
2019-04-28T16:36:07.076Z,0.73
2019-04-28T16:38:10.681Z,1.77
2019-04-28T16:40:14.561Z,3.27
2019-04-28T16:42:19.100Z,3.67
2019-04-28T16:44:26.969Z,3.70
2019-04-28T16:46:30.516Z,2.63
2019-04-28T16:48:34.032Z,3.40
2019-04-28T16:50:37.588Z,4.33
2019-04-28T16:52:41.467Z,3.13
2019-04-28T16:54:47.188Z,2.53
2019-04-28T16:57:07.496Z,0.40
2019-04-28T16:59:15.384Z,0.30
2019-04-28T17:01:26.367Z,0.50
2019-04-28T17:03:31.895Z,0.33
2019-04-28T17:05:35.714Z,0.40
2019-04-28T17:07:52.008Z,0.23
2019-04-28T17:09:44.941Z,0.33
2019-04-28T17:11:48.454Z,0.30
2019-04-28T17:13:52.359Z,0.47
2019-04-28T17:15:56.270Z,0.63
2019-04-28T17:18:00.152Z,0.60
2019-04-28T17:20:05.976Z,0.40
2019-04-28T17:22:09.764Z,0.37
2019-04-28T17:24:13.607Z,0.40
2019-04-28T17:26:17.420Z,1.37
2019-04-28T17:28:21.606Z,0.73
2019-04-28T17:30:25.502Z,0.50
2019-04-28T17:32:29.449Z,0.50
2019-04-28T17:34:33.339Z,0.60
2019-04-28T17:36:37.251Z,0.43
2019-04-28T17:38:40.794Z,0.40
2019-04-28T17:40:44.754Z,0.50
2019-04-28T17:42:48.660Z,0.60
2019-04-28T17:44:52.566Z,0.50
2019-04-28T17:46:56.472Z,0.50
2019-04-28T17:49:01.208Z,0.60
2019-04-28T17:51:05.135Z,0.60
2019-04-28T17:53:08.660Z,0.70
2019-04-28T17:55:12.599Z,1.03
2019-04-28T17:57:16.441Z,0.60
2019-04-28T17:59:20.004Z,0.90
2019-04-28T18:01:41.324Z,0.90
2019-04-28T18:03:46.882Z,0.50
2019-04-28T18:06:17.568Z,0.53
2019-04-28T18:08:20.965Z,0.63
2019-04-28T18:10:20.146Z,0.60
2019-04-28T18:12:24.004Z,0.60
2019-04-28T18:14:27.531Z,0.90
2019-04-28T18:16:47.871Z,17.00
2019-04-28T18:18:59.043Z,2.40
2019-04-28T18:21:02.564Z,1.10
2019-04-28T18:23:06.465Z,1.10
2019-04-28T18:25:10.676Z,0.70
2019-04-28T18:27:14.570Z,0.60
2019-04-28T18:29:18.488Z,0.80
2019-04-28T18:31:23.922Z,1.27
2019-04-28T18:33:38.476Z,4.83
2019-04-28T18:35:43.945Z,4.92
2019-04-28T18:38:07.742Z,4.92
2019-04-28T18:40:25.942Z,5.47
2019-04-28T18:42:40.795Z,4.28
2019-04-28T18:44:44.897Z,2.90
2019-04-28T18:46:49.117Z,2.58
2019-04-28T18:48:53.227Z,1.20
2019-04-28T18:50:57.338Z,1.00
2019-04-28T18:53:01.555Z,1.00
2019-04-28T18:55:07.295Z,1.10
2019-04-28T18:57:11.144Z,1.22
2019-04-28T18:59:15.306Z,1.00
2019-04-28T19:01:33.345Z,1.10
2019-04-28T19:03:37.593Z,0.90
2019-04-28T19:05:43.064Z,0.80
2019-04-28T19:07:48.858Z,1.10
2019-04-28T19:10:00.162Z,0.90
2019-04-28T19:12:22.468Z,1.05
2019-04-28T19:14:28.324Z,0.90
2019-04-28T19:16:45.765Z,0.80
2019-04-28T19:18:52.684Z,1.00
2019-04-28T19:20:56.841Z,0.98
2019-04-28T19:23:01.275Z,1.07
2019-04-28T19:25:06.273Z,0.95
2019-04-28T19:27:10.805Z,1.20
2019-04-28T19:29:14.613Z,1.90
2019-04-28T19:31:19.946Z,1.10
2019-04-28T19:33:27.015Z,0.98
2019-04-28T19:35:31.231Z,1.02
2019-04-28T19:37:35.048Z,1.25
2019-04-28T19:39:40.849Z,1.27
2019-04-28T19:41:45.208Z,0.95
2019-04-28T19:43:49.006Z,0.90
2019-04-28T19:45:54.554Z,1.33
2019-04-28T19:47:58.651Z,1.15
2019-04-28T19:50:02.775Z,1.40
2019-04-28T19:52:06.999Z,1.30
2019-04-28T19:54:11.805Z,1.60
2019-04-28T19:56:28.105Z,1.30
2019-04-28T19:58:36.437Z,2.92
2019-04-28T20:00:47.904Z,4.20
2019-04-28T20:02:52.107Z,2.87
2019-04-28T20:04:56.217Z,2.70
2019-04-28T20:07:00.325Z,2.30
2019-04-28T20:09:05.981Z,2.60
2019-04-28T20:11:10.095Z,2.67
2019-04-28T20:13:14.189Z,2.85
2019-04-28T20:15:18.311Z,2.70
2019-04-28T20:17:22.506Z,2.70
2019-04-28T20:19:26.628Z,2.62
2019-04-28T20:21:30.837Z,2.45
2019-04-28T20:23:34.976Z,2.27
2019-04-28T20:25:38.825Z,2.22
2019-04-28T20:27:42.963Z,2.60
2019-04-28T20:29:47.169Z,2.58
2019-04-28T20:31:51.005Z,5.25
2019-04-28T20:33:55.180Z,5.28
2019-04-28T20:36:03.750Z,7.80
2019-04-28T20:38:18.357Z,4.50
2019-04-28T20:40:23.840Z,3.27
2019-04-28T20:42:47.680Z,3.20
2019-04-28T20:44:51.882Z,2.58
2019-04-28T20:46:55.999Z,2.40
2019-04-28T20:49:00.217Z,2.45
2019-04-28T20:51:04.435Z,2.10
2019-04-28T20:53:08.635Z,2.00
2019-04-28T20:55:12.573Z,2.40
2019-04-28T20:57:16.784Z,1.77
2019-04-28T20:59:20.867Z,1.80
2019-04-28T21:01:24.983Z,1.90
2019-04-28T21:03:29.209Z,1.90
2019-04-28T21:05:33.417Z,1.80
2019-04-28T21:07:37.229Z,2.10
2019-04-28T21:09:41.404Z,2.08
2019-04-28T21:11:45.219Z,2.00
2019-04-28T21:13:49.327Z,2.02
2019-04-28T21:15:53.576Z,2.45
2019-04-28T21:17:57.373Z,2.50
2019-04-28T21:20:01.577Z,2.45
2019-04-28T21:22:05.719Z,2.90
2019-04-28T21:24:09.871Z,2.98
2019-04-28T21:26:13.707Z,2.42
2019-04-28T21:28:17.536Z,3.00
2019-04-28T21:30:21.793Z,2.87
2019-04-28T21:32:25.910Z,2.17
2019-04-28T21:34:30.032Z,2.67
2019-04-28T21:36:34.245Z,3.00
2019-04-28T21:38:38.047Z,2.72
2019-04-28T21:40:42.749Z,2.40
2019-04-28T21:42:57.105Z,2.25
2019-04-28T21:45:08.526Z,2.70
2019-04-28T21:47:26.255Z,2.58
2019-04-28T21:49:31.999Z,2.50
2019-04-28T21:51:36.177Z,2.50
2019-04-28T21:53:40.391Z,2.87
2019-04-28T21:55:44.502Z,2.80
2019-04-28T21:57:48.625Z,2.10
2019-04-28T21:59:52.721Z,2.72
2019-04-28T22:01:56.929Z,2.22
2019-04-28T22:04:01.062Z,2.62
2019-04-28T22:06:04.912Z,3.00
2019-04-28T22:08:09.065Z,2.80
2019-04-28T22:10:13.587Z,2.35
2019-04-28T22:12:17.709Z,3.10
2019-04-28T22:14:21.535Z,2.70
2019-04-28T22:16:25.338Z,3.00
2019-04-28T22:18:29.506Z,3.42
2019-04-28T22:20:33.340Z,4.90
2019-04-28T22:22:37.429Z,5.20
2019-04-28T22:24:42.907Z,4.20
2019-04-28T22:26:51.281Z,4.15
2019-04-28T22:28:55.409Z,3.67
2019-04-28T22:30:59.615Z,3.50
2019-04-28T22:33:03.706Z,3.65
2019-04-28T22:35:08.377Z,2.95
2019-04-28T22:37:12.537Z,2.80
2019-04-28T22:39:16.864Z,3.40
2019-04-28T22:41:20.959Z,5.70
2019-04-28T22:43:24.787Z,6.22
2019-04-28T22:45:28.607Z,6.72
2019-04-28T22:47:32.786Z,5.08
2019-04-28T22:49:36.604Z,4.83
2019-04-28T22:51:40.819Z,5.08
2019-04-28T22:53:45.019Z,6.12
2019-04-28T22:55:50.775Z,7.00
2019-04-28T22:57:56.225Z,9.60
2019-04-28T23:00:00.849Z,12.00
2019-04-28T23:02:06.453Z,10.90
2019-04-28T23:04:12.654Z,11.08
2019-04-28T23:06:17.066Z,10.43
2019-04-28T23:08:21.165Z,9.60
2019-04-28T23:10:25.377Z,9.68
2019-04-28T23:12:29.504Z,11.60
2019-04-28T23:14:33.384Z,10.03
2019-04-28T23:16:37.226Z,7.35
2019-04-28T23:18:41.125Z,6.80
2019-04-28T23:20:46.611Z,7.97
2019-04-28T23:22:51.509Z,8.80
2019-04-28T23:24:55.334Z,9.15
2019-04-28T23:26:59.495Z,9.13
2019-04-28T23:29:03.723Z,9.40
2019-04-28T23:31:07.528Z,12.93
2019-04-28T23:33:11.926Z,11.78
2019-04-28T23:35:16.124Z,10.82
2019-04-28T23:37:19.961Z,9.10
2019-04-28T23:39:23.804Z,8.85
2019-04-28T23:41:32.054Z,8.03
2019-04-28T23:43:36.269Z,6.95
2019-04-28T23:45:40.477Z,6.42
2019-04-28T23:47:44.301Z,6.37
2019-04-28T23:49:48.489Z,6.95
2019-04-28T23:51:54.238Z,6.53
2019-04-28T23:54:02.442Z,5.70
2019-04-28T23:56:06.665Z,5.50
2019-04-28T23:58:10.754Z,5.45
